Time;durP1;ratioP1;P1;durP2;ratioP2;P2;SDS_P1;SDS_P2;PMS_P1;PMS_P2;Temp;Humidity;BMP_temperature;BMP_pressure;BME280_temperature;BME280_humidity;BME280_pressure;Samples;Min_cycle;Max_cycle;Signal;HPM_P1;HPM_P2
2024/03/30 00:00:06;;;;;;;0.50;0.50;;;12.80;99.90;;;;;;4958718;28;20105;-87
2024/03/30 00:02:31;;;;;;;0.20;0.20;;;12.80;99.90;;;;;;4942781;28;20125;-89
2024/03/30 00:04:57;;;;;;;0.75;0.50;;;12.70;99.90;;;;;;4959534;28;20484;-88
2024/03/30 00:07:23;;;;;;;0.28;0.28;;;12.70;99.90;;;;;;4974730;28;20092;-89
2024/03/30 00:09:50;;;;;;;0.68;0.40;;;12.70;99.90;;;;;;4974810;28;20027;-88
2024/03/30 00:12:16;;;;;;;0.40;0.40;;;12.70;99.90;;;;;;4974701;28;20471;-86
2024/03/30 00:14:41;;;;;;;0.70;0.40;;;12.70;99.90;;;;;;4974333;28;20037;-89
2024/03/30 00:17:08;;;;;;;1.92;0.50;;;12.70;99.90;;;;;;4975634;28;20057;-88
2024/03/30 00:19:37;;;;;;;0.55;0.28;;;12.70;99.90;;;;;;4958800;28;20086;-88
2024/03/30 00:22:02;;;;;;;0.50;0.40;;;12.70;99.90;;;;;;4975671;28;20058;-88
2024/03/30 00:24:28;;;;;;;0.50;0.40;;;12.70;99.90;;;;;;4958369;28;20062;-88
2024/03/30 00:26:54;;;;;;;0.40;0.40;;;12.70;99.90;;;;;;4974446;28;20034;-89
2024/03/30 00:29:22;;;;;;;0.77;0.50;;;12.70;99.90;;;;;;4974766;28;20050;-89
2024/03/30 00:31:48;;;;;;;0.70;0.50;;;12.70;99.90;;;;;;4959186;28;20082;-89
2024/03/30 00:34:14;;;;;;;1.45;0.43;;;12.70;99.90;;;;;;4962406;28;20130;-89
2024/03/30 00:36:39;;;;;;;0.43;0.30;;;12.70;99.90;;;;;;4978434;28;20115;-86
2024/03/30 00:39:11;;;;;;;0.40;0.30;;;12.70;99.90;;;;;;4978404;28;20042;-88
2024/03/30 00:41:38;;;;;;;0.50;0.40;;;12.70;99.90;;;;;;4979606;28;20486;-87
2024/03/30 00:44:03;;;;;;;0.40;0.40;;;12.70;99.90;;;;;;4979717;28;20033;-87
2024/03/30 00:46:29;;;;;;;0.57;0.45;;;12.70;99.90;;;;;;4978667;28;20031;-88
2024/03/30 00:48:55;;;;;;;0.85;0.50;;;12.70;99.90;;;;;;4977882;28;20506;-88
2024/03/30 00:51:20;;;;;;;1.40;0.70;;;12.70;99.90;;;;;;4978379;28;20109;-88
2024/03/30 00:53:46;;;;;;;0.50;0.50;;;12.70;99.90;;;;;;4978402;28;20027;-88
2024/03/30 00:56:12;;;;;;;1.67;0.40;;;12.70;99.90;;;;;;4962300;28;20496;-86
2024/03/30 00:58:37;;;;;;;0.73;0.50;;;12.60;99.90;;;;;;4978165;28;20037;-86
2024/03/30 01:01:04;;;;;;;0.90;0.40;;;12.70;99.90;;;;;;4978415;28;20113;-87
2024/03/30 01:03:33;;;;;;;0.60;0.60;;;12.60;99.90;;;;;;4978294;28;20105;-88
2024/03/30 01:05:58;;;;;;;0.50;0.50;;;12.60;99.90;;;;;;4962388;28;20031;-88
2024/03/30 01:08:24;;;;;;;0.88;0.60;;;12.60;99.90;;;;;;4962436;28;20093;-89
2024/03/30 01:10:59;;;;;;;1.23;0.70;;;12.50;99.90;;;;;;4980159;28;20084;-87
2024/03/30 01:13:26;;;;;;;0.95;0.60;;;12.50;99.90;;;;;;4979577;28;20061;-87
2024/03/30 01:15:52;;;;;;;0.70;0.70;;;12.60;99.90;;;;;;4963813;28;20030;-88
2024/03/30 01:18:18;;;;;;;1.10;0.60;;;12.50;99.90;;;;;;4997937;28;20038;-85
2024/03/30 01:20:44;;;;;;;1.05;0.65;;;12.50;99.90;;;;;;4969438;28;20034;-87
2024/03/30 01:23:10;;;;;;;0.90;0.80;;;12.40;99.90;;;;;;5001294;28;20035;-89
2024/03/30 01:25:36;;;;;;;2.47;0.60;;;12.50;99.90;;;;;;4985477;28;20102;-90
2024/03/30 01:28:03;;;;;;;0.70;0.70;;;12.40;99.90;;;;;;4981302;28;20034;-89
2024/03/30 01:30:29;;;;;;;1.23;0.77;;;12.40;99.90;;;;;;4966810;28;20450;-86
2024/03/30 01:32:55;;;;;;;1.90;0.98;;;12.30;99.90;;;;;;4979341;28;20030;-87
2024/03/30 01:35:21;;;;;;;1.75;1.13;;;12.30;99.90;;;;;;4977655;28;20019;-88
2024/03/30 01:37:47;;;;;;;1.55;0.80;;;12.30;99.90;;;;;;4961438;28;20038;-88
2024/03/30 01:40:12;;;;;;;0.95;0.90;;;12.30;99.90;;;;;;4977463;28;20107;-89
2024/03/30 01:42:38;;;;;;;1.95;1.10;;;12.30;99.90;;;;;;4961201;28;20054;-88
2024/03/30 01:45:04;;;;;;;1.65;1.08;;;12.20;99.90;;;;;;4977384;28;20031;-88
2024/03/30 01:47:30;;;;;;;1.55;1.00;;;12.20;99.90;;;;;;4977726;28;20037;-89
2024/03/30 01:50:03;;;;;;;1.85;1.00;;;12.20;99.90;;;;;;4960766;28;20107;-88
2024/03/30 01:52:34;;;;;;;2.30;1.02;;;12.20;99.90;;;;;;4977516;28;20035;-88
2024/03/30 01:55:04;;;;;;;1.92;1.23;;;12.10;99.90;;;;;;4978407;28;20015;-88
2024/03/30 01:57:33;;;;;;;2.22;1.02;;;12.10;99.90;;;;;;4977151;28;20035;-88
2024/03/30 01:59:59;;;;;;;1.27;0.90;;;12.10;99.90;;;;;;4977659;28;20565;-88
2024/03/30 02:02:26;;;;;;;1.45;1.10;;;12.10;99.90;;;;;;4967123;28;20051;-88
2024/03/30 02:04:53;;;;;;;2.67;1.02;;;12.10;99.90;;;;;;4979476;28;20103;-88
2024/03/30 02:07:20;;;;;;;1.60;1.15;;;12.10;99.90;;;;;;4979032;28;20090;-88
2024/03/30 02:09:47;;;;;;;1.55;1.02;;;12.10;99.90;;;;;;4977828;28;20069;-89
2024/03/30 02:12:13;;;;;;;1.08;1.00;;;12.10;99.90;;;;;;4978671;28;20022;-88
2024/03/30 02:14:48;;;;;;;1.13;1.02;;;12.10;99.90;;;;;;4976908;28;20019;-88
2024/03/30 02:17:13;;;;;;;1.27;0.93;;;12.10;99.90;;;;;;4977303;28;20054;-88
2024/03/30 02:19:45;;;;;;;1.63;1.10;;;12.10;99.90;;;;;;4978242;28;20030;-88
2024/03/30 02:22:10;;;;;;;2.67;1.00;;;12.10;99.90;;;;;;4976917;28;20026;-89
2024/03/30 02:24:36;;;;;;;2.05;1.00;;;12.10;99.90;;;;;;4976831;28;20031;-88
2024/03/30 02:27:05;;;;;;;1.58;1.00;;;12.00;99.90;;;;;;4960170;28;20038;-88
2024/03/30 02:29:35;;;;;;;1.02;0.90;;;12.00;99.90;;;;;;4976992;28;20107;-88
2024/03/30 02:32:03;;;;;;;1.73;1.02;;;12.00;99.90;;;;;;4978030;28;20054;-88
2024/03/30 02:34:29;;;;;;;1.60;1.35;;;11.90;99.90;;;;;;4976672;28;20054;-87
2024/03/30 02:36:57;;;;;;;1.27;1.17;;;12.00;99.90;;;;;;4977171;28;20113;-88
2024/03/30 02:39:23;;;;;;;2.05;1.30;;;11.90;99.90;;;;;;4960905;28;20030;-88
2024/03/30 02:41:49;;;;;;;2.38;1.10;;;12.00;99.90;;;;;;4977241;28;20033;-90
2024/03/30 02:44:15;;;;;;;2.17;1.42;;;12.00;99.90;;;;;;4977205;28;20035;-88
2024/03/30 02:46:43;;;;;;;1.95;1.40;;;12.00;99.90;;;;;;4960905;28;20030;-90
2024/03/30 02:49:09;;;;;;;2.13;1.25;;;12.00;99.90;;;;;;4962569;28;20027;-88
2024/03/30 02:51:35;;;;;;;1.45;1.13;;;12.00;99.90;;;;;;4982303;28;20375;-88
2024/03/30 02:54:01;;;;;;;1.63;1.35;;;11.90;99.90;;;;;;4983878;28;20039;-88
2024/03/30 02:56:27;;;;;;;1.55;1.40;;;11.90;99.90;;;;;;4999011;28;20010;-90
2024/03/30 02:58:55;;;;;;;2.42;1.58;;;11.80;99.90;;;;;;4983079;28;20046;-89
2024/03/30 03:01:20;;;;;;;1.80;1.55;;;11.80;99.90;;;;;;4980093;28;20065;-88
2024/03/30 03:03:46;;;;;;;2.03;1.60;;;11.90;99.90;;;;;;4978567;28;20027;-90
2024/03/30 03:06:12;;;;;;;2.70;1.73;;;11.90;99.90;;;;;;4978460;28;20383;-89
2024/03/30 03:08:39;;;;;;;1.50;1.40;;;11.90;99.90;;;;;;4977151;28;20033;-89
2024/03/30 03:11:07;;;;;;;2.45;1.60;;;11.90;99.90;;;;;;4977444;28;20034;-90
2024/03/30 03:13:33;;;;;;;1.95;1.75;;;11.80;99.90;;;;;;4961499;28;20034;-90
2024/03/30 03:16:08;;;;;;;1.73;1.48;;;11.80;99.90;;;;;;4976717;28;20031;-91
2024/03/30 03:18:33;;;;;;;2.00;1.80;;;11.90;99.90;;;;;;4976626;28;20518;-92
2024/03/30 03:20:59;;;;;;;1.85;1.60;;;11.90;99.90;;;;;;4976697;28;20027;-89
2024/03/30 03:23:25;;;;;;;1.90;1.70;;;11.90;99.90;;;;;;4960317;28;20058;-90
2024/03/30 03:25:53;;;;;;;2.10;1.77;;;11.90;99.90;;;;;;4976424;28;20077;-89
2024/03/30 03:28:19;;;;;;;2.22;1.70;;;11.90;99.90;;;;;;4976412;28;20081;-91
2024/03/30 03:30:46;;;;;;;2.10;1.90;;;11.90;99.90;;;;;;4976140;28;20027;-89
2024/03/30 03:33:14;;;;;;;2.45;2.20;;;11.80;99.90;;;;;;4976189;28;20046;-90
2024/03/30 03:35:39;;;;;;;2.05;1.85;;;11.80;99.90;;;;;;4976441;28;20027;-92
2024/03/30 03:38:05;;;;;;;2.03;1.83;;;11.70;99.90;;;;;;4976067;28;20104;-92
2024/03/30 03:40:32;;;;;;;3.20;2.20;;;11.70;99.90;;;;;;4976139;28;20535;-90
2024/03/30 03:42:57;;;;;;;2.40;2.20;;;11.70;99.90;;;;;;4976123;28;20038;-89
2024/03/30 03:45:26;;;;;;;2.15;1.90;;;11.70;99.90;;;;;;4975747;28;20387;-90
2024/03/30 03:47:52;;;;;;;1.90;1.80;;;11.70;99.90;;;;;;4977077;28;20034;-90
2024/03/30 03:50:20;;;;;;;2.28;2.08;;;11.70;99.90;;;;;;4963261;28;20545;-89
2024/03/30 03:52:46;;;;;;;3.15;2.03;;;11.70;99.90;;;;;;4979545;28;20026;-88
2024/03/30 03:55:15;;;;;;;2.97;2.47;;;11.70;99.90;;;;;;4961058;28;20449;-89
2024/03/30 03:57:40;;;;;;;2.53;2.28;;;11.70;99.90;;;;;;4976062;28;20023;-90
2024/03/30 04:00:06;;;;;;;2.20;2.00;;;11.70;99.90;;;;;;4975461;28;20058;-88
2024/03/30 04:02:34;;;;;;;3.05;2.42;;;11.70;99.90;;;;;;4975786;28;20018;-89
2024/03/30 04:05:02;;;;;;;2.50;2.30;;;11.70;99.90;;;;;;4976022;28;20079;-91
2024/03/30 04:07:28;;;;;;;2.55;2.35;;;11.70;99.90;;;;;;4975917;28;20062;-90
2024/03/30 04:09:54;;;;;;;3.83;2.80;;;11.70;99.90;;;;;;4976082;28;20383;-89
2024/03/30 04:12:19;;;;;;;3.72;2.70;;;11.70;99.90;;;;;;4977265;28;20022;-89
2024/03/30 04:14:46;;;;;;;3.95;2.58;;;11.70;99.90;;;;;;4976582;28;20417;-90
2024/03/30 04:17:12;;;;;;;3.55;2.63;;;11.70;99.90;;;;;;4980287;28;20031;-90
2024/03/30 04:19:37;;;;;;;4.75;2.72;;;11.70;99.90;;;;;;4966913;28;20110;-90
2024/03/30 04:22:04;;;;;;;2.75;2.55;;;11.70;99.90;;;;;;4965523;28;20031;-89
2024/03/30 04:24:32;;;;;;;2.83;2.45;;;11.70;99.90;;;;;;4984939;28;20038;-90
2024/03/30 04:26:58;;;;;;;3.35;2.97;;;11.70;99.90;;;;;;4999188;28;20034;-88
2024/03/30 04:29:24;;;;;;;5.22;3.08;;;11.70;99.90;;;;;;4999263;28;20011;-87
2024/03/30 04:31:49;;;;;;;4.13;2.67;;;11.70;99.90;;;;;;4998527;28;20019;-87
2024/03/30 04:34:15;;;;;;;3.78;2.78;;;11.70;99.90;;;;;;4998703;28;20037;-88
2024/03/30 04:36:43;;;;;;;3.50;3.20;;;11.70;99.90;;;;;;4990610;28;20031;-91
2024/03/30 04:39:09;;;;;;;3.42;3.10;;;11.70;99.90;;;;;;4975866;28;20039;-90
2024/03/30 04:41:34;;;;;;;2.92;2.70;;;11.60;99.90;;;;;;4976703;28;20030;-89
2024/03/30 04:44:00;;;;;;;2.95;2.55;;;11.60;99.90;;;;;;4975619;28;20427;-88
2024/03/30 04:46:26;;;;;;;3.58;2.85;;;11.60;99.90;;;;;;4959465;28;20121;-89
2024/03/30 04:48:54;;;;;;;3.30;3.00;;;11.70;99.90;;;;;;4959474;28;20067;-88
2024/03/30 04:51:19;;;;;;;3.55;2.78;;;11.70;99.90;;;;;;4975969;28;20109;-89
2024/03/30 04:53:45;;;;;;;3.03;2.63;;;11.70;99.90;;;;;;4975350;28;20050;-90
2024/03/30 04:56:11;;;;;;;3.10;2.80;;;11.60;99.90;;;;;;4975557;28;20069;-89
2024/03/30 04:58:37;;;;;;;4.13;3.17;;;11.60;99.90;;;;;;4959696;28;20043;-88
2024/03/30 05:01:07;;;;;;;3.25;2.92;;;11.60;99.90;;;;;;4979290;28;20070;-90
2024/03/30 05:03:38;;;;;;;3.38;3.08;;;11.60;99.90;;;;;;4977823;28;20022;-89
2024/03/30 05:06:05;;;;;;;3.17;2.90;;;11.50;99.90;;;;;;4977310;28;20030;-89
2024/03/30 05:08:32;;;;;;;3.50;2.97;;;11.50;99.90;;;;;;4976563;28;20030;-90
2024/03/30 05:10:58;;;;;;;3.65;3.35;;;11.50;99.90;;;;;;4975766;28;20105;-89
2024/03/30 05:13:24;;;;;;;4.82;3.65;;;11.50;99.90;;;;;;4976910;28;20027;-90
2024/03/30 05:15:50;;;;;;;3.47;3.17;;;11.50;99.90;;;;;;4974960;28;20022;-90
2024/03/30 05:18:17;;;;;;;3.88;3.47;;;11.40;99.90;;;;;;4975568;28;20074;-88
2024/03/30 05:20:50;;;;;;;3.55;3.25;;;11.40;99.90;;;;;;4978867;28;20074;-88
2024/03/30 05:23:28;;;;;;;4.30;3.60;;;11.40;99.90;;;;;;4978622;28;20479;-89
2024/03/30 05:26:11;;;;;;;3.72;3.40;;;11.40;99.90;;;;;;4978450;28;20023;-89
2024/03/30 05:28:40;;;;;;;3.95;3.55;;;11.40;99.90;;;;;;4978334;28;20456;-89
2024/03/30 05:31:18;;;;;;;4.07;3.72;;;11.30;99.90;;;;;;4977976;28;20207;-90
2024/03/30 05:33:44;;;;;;;4.30;3.85;;;11.20;99.90;;;;;;4978400;28;20023;-88
2024/03/30 05:36:09;;;;;;;3.70;3.38;;;11.30;99.90;;;;;;4978455;28;20026;-90
2024/03/30 05:38:38;;;;;;;4.10;3.70;;;11.20;99.90;;;;;;4978349;28;20042;-90
2024/03/30 05:41:06;;;;;;;4.03;3.63;;;11.20;99.90;;;;;;4962448;28;20023;-87
2024/03/30 05:43:35;;;;;;;5.50;4.32;;;11.20;99.90;;;;;;4979065;28;20479;-90
2024/03/30 05:46:05;;;;;;;4.32;3.92;;;11.20;99.90;;;;;;4977822;28;20037;-91
2024/03/30 05:48:33;;;;;;;4.45;3.85;;;11.30;99.90;;;;;;4977760;28;20022;-87
2024/03/30 05:51:01;;;;;;;3.90;3.50;;;11.30;99.90;;;;;;4946170;28;20066;-90
2024/03/30 05:53:38;;;;;;;4.25;3.55;;;11.20;99.90;;;;;;4978068;28;20037;-90
2024/03/30 05:56:07;;;;;;;4.07;3.58;;;11.30;99.90;;;;;;4978685;28;20043;-89
2024/03/30 05:58:36;;;;;;;3.88;3.47;;;11.30;99.90;;;;;;4964762;28;20030;-90
2024/03/30 06:01:01;;;;;;;4.32;3.28;;;11.30;99.90;;;;;;5000049;28;20042;-90
2024/03/30 06:03:29;;;;;;;3.70;3.25;;;11.40;99.90;;;;;;5000938;28;20011;-91
2024/03/30 06:05:55;;;;;;;4.07;3.67;;;11.40;99.90;;;;;;5001290;28;20027;-90
2024/03/30 06:08:21;;;;;;;4.18;3.78;;;11.40;99.90;;;;;;4983703;28;20042;-89
2024/03/30 06:10:46;;;;;;;3.35;3.03;;;11.40;99.90;;;;;;4946996;28;20037;-88
2024/03/30 06:13:15;;;;;;;4.38;3.55;;;11.40;99.90;;;;;;4961416;28;20475;-92
2024/03/30 06:15:40;;;;;;;4.13;3.67;;;11.40;99.90;;;;;;4977562;28;20031;-90
2024/03/30 06:18:07;;;;;;;5.45;4.82;;;11.30;99.90;;;;;;4978148;28;20034;-88
2024/03/30 06:20:43;;;;;;;5.65;4.80;;;11.30;99.90;;;;;;4976914;28;20030;-90
2024/03/30 06:23:12;;;;;;;5.10;4.55;;;11.30;99.90;;;;;;4977458;28;20042;-89
2024/03/30 06:25:40;;;;;;;5.85;4.47;;;11.30;99.90;;;;;;4976837;28;20035;-91
2024/03/30 06:28:06;;;;;;;5.68;5.07;;;11.30;99.90;;;;;;4977218;28;20427;-89
2024/03/30 06:30:34;;;;;;;5.97;4.50;;;11.30;99.90;;;;;;4976304;28;20018;-90
2024/03/30 06:33:00;;;;;;;4.53;4.13;;;11.20;99.90;;;;;;4977971;28;20030;-89
2024/03/30 06:35:26;;;;;;;4.40;3.95;;;11.30;99.90;;;;;;4976586;28;20094;-91
2024/03/30 06:37:52;;;;;;;4.82;3.88;;;11.30;99.90;;;;;;4978092;28;20031;-89
2024/03/30 06:45:46;;;;;;;5.38;4.45;;;11.30;99.90;;;;;;4977712;28;20097;-89
2024/03/30 06:48:17;;;;;;;5.03;3.78;;;11.30;99.90;;;;;;4976654;28;20023;-89
2024/03/30 06:50:43;;;;;;;5.78;5.00;;;11.30;99.90;;;;;;4976398;28;20110;-90
2024/03/30 06:53:08;;;;;;;5.65;4.90;;;11.40;99.90;;;;;;4976666;28;20046;-89
2024/03/30 06:55:34;;;;;;;5.70;4.90;;;11.40;99.90;;;;;;4976657;28;20456;-91
2024/03/30 06:58:02;;;;;;;7.50;4.90;;;11.40;99.90;;;;;;4976514;28;20031;-90
2024/03/30 07:00:28;;;;;;;7.53;5.95;;;11.50;99.90;;;;;;4975955;28;20058;-89
2024/03/30 07:02:54;;;;;;;6.53;5.82;;;11.50;99.90;;;;;;4976224;28;20027;-88
2024/03/30 07:05:22;;;;;;;7.75;6.00;;;11.50;99.90;;;;;;4976448;28;20030;-91
2024/03/30 07:07:50;;;;;;;9.88;7.05;;;11.50;99.90;;;;;;4976738;28;20027;-88
2024/03/30 07:10:16;;;;;;;8.70;7.72;;;11.50;99.90;;;;;;4960799;28;20042;-88
2024/03/30 07:12:43;;;;;;;11.88;8.00;;;11.40;99.90;;;;;;4960522;28;20026;-89
2024/03/30 07:15:08;;;;;;;8.68;7.35;;;11.40;99.90;;;;;;4960923;28;20085;-88
2024/03/30 07:17:34;;;;;;;9.10;7.55;;;11.40;99.90;;;;;;4983222;28;20038;-87
2024/03/30 07:19:59;;;;;;;8.43;7.50;;;11.40;99.90;;;;;;4982979;28;20027;-87
2024/03/30 07:22:25;;;;;;;7.32;6.28;;;11.40;99.90;;;;;;4955705;28;20027;-88
2024/03/30 07:24:51;;;;;;;8.63;7.70;;;11.40;99.90;;;;;;4992812;28;20023;-88
2024/03/30 07:27:23;;;;;;;8.07;6.47;;;11.40;99.90;;;;;;4977038;28;20173;-87
2024/03/30 07:29:52;;;;;;;7.97;7.00;;;11.40;99.90;;;;;;4977190;28;20118;-88
2024/03/30 07:32:20;;;;;;;9.77;6.95;;;11.40;99.90;;;;;;4984050;28;20079;-87
2024/03/30 07:34:47;;;;;;;7.65;6.78;;;11.40;99.90;;;;;;4983271;28;20023;-87
2024/03/30 07:37:16;;;;;;;7.63;6.90;;;11.40;99.90;;;;;;4999583;28;20023;-87
2024/03/30 07:39:42;;;;;;;10.43;8.20;;;11.40;99.90;;;;;;4996950;28;20027;-87
2024/03/30 07:42:08;;;;;;;8.13;7.15;;;11.40;99.90;;;;;;4983823;28;20050;-89
2024/03/30 07:44:38;;;;;;;8.20;7.15;;;11.50;99.90;;;;;;4975237;28;20093;-88
2024/03/30 07:47:05;;;;;;;7.90;6.25;;;11.50;99.90;;;;;;4975586;28;20097;-87
2024/03/30 07:49:39;;;;;;;8.18;7.35;;;11.50;99.90;;;;;;4975581;28;20124;-88
2024/03/30 07:52:05;;;;;;;7.15;6.45;;;11.60;99.90;;;;;;4976720;28;20023;-88
2024/03/30 07:54:47;;;;;;;8.55;7.18;;;11.50;99.90;;;;;;4975962;28;20493;-87
2024/03/30 07:57:12;;;;;;;;;;;11.50;99.90;;;;;;4976295;28;20364;-89
2024/03/30 07:59:38;;;;;;;8.23;5.70;;;11.50;99.90;;;;;;4978727;28;19906;-89
2024/03/30 08:02:04;;;;;;;6.55;5.88;;;11.50;99.90;;;;;;4984074;28;20041;-90
2024/03/30 08:04:29;;;;;;;6.90;6.20;;;11.50;99.90;;;;;;4964776;28;20023;-89
2024/03/30 08:06:56;;;;;;;7.88;6.63;;;11.50;99.90;;;;;;4964607;28;20026;-89
2024/03/30 08:09:25;;;;;;;6.78;6.07;;;11.50;99.90;;;;;;4979808;28;20023;-92
2024/03/30 08:11:51;;;;;;;6.05;5.45;;;11.60;99.90;;;;;;4979151;28;20014;-90
2024/03/30 08:14:21;;;;;;;6.80;5.97;;;11.60;99.90;;;;;;4980662;28;20121;-92
2024/03/30 08:16:47;;;;;;;7.53;5.65;;;11.60;99.90;;;;;;4963532;28;20086;-91
2024/03/30 08:19:17;;;;;;;7.25;6.40;;;11.60;99.90;;;;;;4978965;28;20034;-90
2024/03/30 08:21:44;;;;;;;6.05;5.45;;;11.70;99.90;;;;;;4963039;28;20094;-90
2024/03/30 08:24:10;;;;;;;6.32;5.72;;;11.70;99.90;;;;;;4980203;28;20033;-88
2024/03/30 08:26:36;;;;;;;6.05;5.45;;;11.70;99.90;;;;;;4982735;28;20043;-89
2024/03/30 08:29:03;;;;;;;5.72;5.13;;;11.80;99.90;;;;;;4983395;28;20092;-89
2024/03/30 08:31:29;;;;;;;6.05;5.45;;;11.80;99.90;;;;;;4980914;28;20027;-89
2024/03/30 08:33:57;;;;;;;6.63;5.75;;;11.90;99.90;;;;;;4979691;28;20024;-89
2024/03/30 08:36:41;;;;;;;6.00;5.13;;;12.00;99.90;;;;;;4979148;28;20042;-89
2024/03/30 08:39:51;;;;;;;5.88;5.18;;;12.00;99.90;;;;;;4978437;28;20030;-87
2024/03/30 08:42:18;;;;;;;6.70;5.60;;;12.10;99.90;;;;;;4994595;28;20042;-90
2024/03/30 08:44:44;;;;;;;6.45;5.28;;;12.10;99.90;;;;;;4996723;28;20112;-88
2024/03/30 08:47:10;;;;;;;5.22;4.70;;;12.20;99.90;;;;;;4978457;28;20052;-89
2024/03/30 08:49:36;;;;;;;5.28;4.50;;;12.30;99.90;;;;;;4978782;28;20036;-90
2024/03/30 08:52:02;;;;;;;5.75;4.45;;;12.40;99.90;;;;;;4978166;28;20035;-89
2024/03/30 08:54:34;;;;;;;5.35;4.85;;;12.50;99.90;;;;;;4965650;28;20022;-86
2024/03/30 08:57:02;;;;;;;4.90;4.25;;;12.60;99.90;;;;;;4999234;28;20030;-89
2024/03/30 08:59:36;;;;;;;6.95;4.60;;;12.60;99.90;;;;;;4981943;28;20057;-87
2024/03/30 09:02:01;;;;;;;4.88;3.92;;;12.80;99.90;;;;;;5000547;28;20097;-88
2024/03/30 09:04:28;;;;;;;5.90;4.28;;;12.90;99.90;;;;;;4983450;28;20428;-89
2024/03/30 09:07:03;;;;;;;6.45;3.92;;;13.00;99.90;;;;;;5000073;28;20030;-90
2024/03/30 09:09:29;;;;;;;4.38;3.60;;;13.10;99.90;;;;;;5005011;28;20018;-89
2024/03/30 09:11:57;;;;;;;4.93;3.75;;;13.20;99.90;;;;;;5004367;28;20019;-89
2024/03/30 09:14:23;;;;;;;5.93;3.88;;;13.30;99.90;;;;;;5021679;28;20015;-90
2024/03/30 09:16:48;;;;;;;5.80;3.30;;;13.40;99.90;;;;;;4988484;28;20085;-90
2024/03/30 09:19:14;;;;;;;5.32;3.55;;;13.40;99.90;;;;;;4965290;28;20030;-88
2024/03/30 09:21:40;;;;;;;7.25;4.00;;;13.50;99.90;;;;;;4966126;28;20023;-89
2024/03/30 09:24:06;;;;;;;5.70;3.65;;;13.60;99.90;;;;;;5000004;28;20085;-92
2024/03/30 09:26:37;;;;;;;5.57;3.65;;;13.60;99.90;;;;;;4984333;28;20378;-90
2024/03/30 09:29:06;;;;;;;6.28;3.63;;;13.70;99.90;;;;;;4984391;28;20030;-89
2024/03/30 09:31:36;;;;;;;6.03;3.40;;;13.70;99.90;;;;;;4986459;28;20018;-89
2024/03/30 09:34:01;;;;;;;6.07;3.50;;;13.80;99.90;;;;;;4983783;28;20481;-88
2024/03/30 09:36:37;;;;;;;;;;;;;;;;;;;;;
2024/03/30 09:39:03;;;;;;;4.78;3.33;;;13.90;99.90;;;;;;4999511;28;20038;-90
2024/03/30 09:41:50;;;;;;;6.10;2.97;;;13.90;99.90;;;;;;4965626;28;20050;-91
2024/03/30 09:44:27;;;;;;;8.10;3.50;;;13.90;99.90;;;;;;4981268;28;20023;-90
2024/03/30 09:46:53;;;;;;;8.73;3.78;;;14.00;99.90;;;;;;4982763;28;20045;-88
2024/03/30 09:49:42;;;;;;;8.20;3.45;;;14.00;99.90;;;;;;4980815;28;20022;-90
2024/03/30 09:52:14;;;;;;;7.60;3.63;;;14.00;99.90;;;;;;5002396;28;20084;-89
2024/03/30 09:54:40;;;;;;;7.60;2.80;;;14.00;99.90;;;;;;4968442;28;20030;-88
2024/03/30 09:57:07;;;;;;;6.82;3.00;;;14.10;99.90;;;;;;4982476;28;20084;-89
2024/03/30 09:59:40;;;;;;;11.10;3.50;;;14.10;99.90;;;;;;4981835;28;20022;-90
2024/03/30 10:02:06;;;;;;;9.07;2.88;;;14.20;99.90;;;;;;4981651;28;20133;-89
2024/03/30 10:04:31;;;;;;;7.47;3.10;;;14.30;99.90;;;;;;4980930;28;20501;-89
2024/03/30 10:06:59;;;;;;;8.20;3.05;;;14.30;99.90;;;;;;4966694;28;20035;-87
2024/03/30 10:09:26;;;;;;;7.18;3.17;;;14.40;99.90;;;;;;5001141;28;20129;-89
2024/03/30 10:11:59;;;;;;;7.03;2.85;;;14.50;99.90;;;;;;4999591;28;20023;-86
2024/03/30 10:14:33;;;;;;;6.50;2.92;;;14.50;99.90;;;;;;4984009;28;20037;-89
2024/03/30 10:17:01;;;;;;;7.65;3.63;;;14.60;99.90;;;;;;4983858;28;20033;-88
2024/03/30 10:19:29;;;;;;;11.25;3.65;;;14.70;99.90;;;;;;4989348;28;20027;-87
2024/03/30 10:21:59;;;;;;;10.40;3.20;;;14.80;99.90;;;;;;4989548;28;20084;-89
2024/03/30 10:24:29;;;;;;;8.95;3.05;;;14.80;99.90;;;;;;4989926;28;20058;-87
2024/03/30 10:26:56;;;;;;;10.05;3.40;;;14.90;99.90;;;;;;4986519;28;20029;-89
2024/03/30 10:29:21;;;;;;;6.35;3.15;;;14.90;99.90;;;;;;4981918;28;20022;-86
2024/03/30 10:31:47;;;;;;;11.50;2.85;;;14.90;99.90;;;;;;4980050;28;20029;-89
2024/03/30 10:34:16;;;;;;;6.78;2.47;;;14.90;99.90;;;;;;4998364;28;20065;-88
2024/03/30 10:36:42;;;;;;;10.43;2.95;;;15.00;99.90;;;;;;4998075;28;20026;-89
2024/03/30 10:39:10;;;;;;;9.80;3.15;;;15.00;99.90;;;;;;4998688;28;20041;-89
2024/03/30 10:41:36;;;;;;;11.65;3.35;;;15.00;99.90;;;;;;4981536;28;20125;-88
2024/03/30 10:44:01;;;;;;;11.65;3.55;;;15.00;99.90;;;;;;4988659;28;20061;-88
2024/03/30 10:46:31;;;;;;;7.65;2.75;;;15.00;99.90;;;;;;5003332;28;20018;-90
2024/03/30 10:48:57;;;;;;;9.40;3.45;;;15.10;99.90;;;;;;5003231;28;20010;-89
2024/03/30 10:51:24;;;;;;;9.38;2.78;;;15.10;99.90;;;;;;5003388;28;20041;-89
2024/03/30 10:53:50;;;;;;;9.57;2.67;;;15.10;99.90;;;;;;4999084;28;20031;-89
2024/03/30 10:56:17;;;;;;;11.23;3.45;;;15.20;99.90;;;;;;4980682;28;20022;-88
2024/03/30 10:58:49;;;;;;;9.35;3.13;;;15.20;99.90;;;;;;4980031;28;20122;-88
2024/03/30 11:01:16;;;;;;;13.93;2.63;;;15.20;99.90;;;;;;4983265;28;20042;-88
2024/03/30 11:03:45;;;;;;;8.65;2.47;;;15.30;99.90;;;;;;4990025;28;20117;-89
2024/03/30 11:06:11;;;;;;;13.65;3.25;;;15.30;99.90;;;;;;4984028;28;20065;-89
2024/03/30 11:08:41;;;;;;;11.30;2.53;;;15.40;99.90;;;;;;4979578;28;20096;-90
2024/03/30 11:11:07;;;;;;;7.88;3.13;;;15.40;99.90;;;;;;4964514;28;20030;-89
2024/03/30 11:13:33;;;;;;;10.63;2.80;;;15.50;99.90;;;;;;4979774;28;20487;-89
2024/03/30 11:16:01;;;;;;;12.50;3.22;;;15.50;99.90;;;;;;4963390;28;20031;-90
2024/03/30 11:18:52;;;;;;;12.18;2.80;;;15.50;99.90;;;;;;4979495;28;20073;-89
2024/03/30 11:21:26;;;;;;;;;;;15.50;99.90;;;;;;4980404;28;20018;-89
2024/03/30 11:23:57;;;;;;;8.20;2.63;;;15.60;99.90;;;;;;4979969;28;20381;-90
2024/03/30 11:26:24;;;;;;;8.52;2.78;;;15.60;99.90;;;;;;4979418;28;20471;-89
2024/03/30 11:29:18;;;;;;;12.07;3.00;;;15.70;99.90;;;;;;4979246;28;20076;-89
2024/03/30 11:31:51;;;;;;;9.88;3.00;;;15.70;99.90;;;;;;4978867;28;20022;-88
2024/03/30 11:34:38;;;;;;;16.33;3.25;;;15.70;99.90;;;;;;4979149;28;20501;-90
2024/03/30 11:37:15;;;;;;;10.60;2.95;;;15.80;99.90;;;;;;4995889;28;20027;-90
2024/03/30 11:39:48;;;;;;;15.20;2.85;;;15.80;99.90;;;;;;4978577;28;20050;-88
2024/03/30 11:42:43;;;;;;;8.70;2.97;;;15.90;99.90;;;;;;4995935;28;20101;-91
2024/03/30 11:45:13;;;;;;;15.45;3.22;;;15.80;99.90;;;;;;4979090;28;20029;-92
2024/03/30 11:47:42;;;;;;;7.47;2.83;;;15.90;99.90;;;;;;4978945;28;20448;-91
2024/03/30 11:50:09;;;;;;;12.40;2.70;;;15.90;99.90;;;;;;4962893;28;20037;-88
2024/03/30 11:52:51;;;;;;;10.32;3.00;;;15.90;99.90;;;;;;4978330;28;20026;-88
2024/03/30 11:55:27;;;;;;;10.30;3.20;;;16.00;99.90;;;;;;4978505;28;20023;-89
2024/03/30 11:57:54;;;;;;;14.35;3.20;;;15.90;99.90;;;;;;4978683;28;20037;-89
2024/03/30 12:00:28;;;;;;;10.35;2.75;;;15.90;99.90;;;;;;4995699;28;20482;-90
2024/03/30 12:03:06;;;;;;;13.77;3.33;;;16.00;99.90;;;;;;4996123;28;20041;-91
2024/03/30 12:05:42;;;;;;;10.30;3.00;;;16.00;99.90;;;;;;4998765;28;20030;-90
2024/03/30 12:08:09;;;;;;;8.82;3.13;;;16.00;99.90;;;;;;4980958;28;20026;-88
2024/03/30 12:10:46;;;;;;;16.33;3.80;;;16.00;99.90;;;;;;4978114;28;20028;-89
2024/03/30 12:13:13;;;;;;;13.82;4.03;;;15.90;99.90;;;;;;4978743;28;20022;-90
2024/03/30 12:15:42;;;;;;;13.13;4.15;;;15.90;99.90;;;;;;4979057;28;20026;-90
2024/03/30 12:18:12;;;;;;;12.07;4.40;;;15.90;99.90;;;;;;4996119;28;20058;-88
2024/03/30 12:20:40;;;;;;;17.25;3.65;;;15.90;99.90;;;;;;4978863;28;20105;-88
2024/03/30 12:23:12;;;;;;;16.02;4.00;;;15.90;99.90;;;;;;4981233;28;20026;-91
2024/03/30 12:25:44;;;;;;;14.40;3.72;;;16.00;99.90;;;;;;4972709;28;20094;-91
2024/03/30 12:28:21;;;;;;;14.55;3.10;;;16.00;99.90;;;;;;5002505;28;20003;-90
2024/03/30 12:30:48;;;;;;;14.52;3.92;;;16.00;99.90;;;;;;5005878;28;20086;-89
2024/03/30 12:33:15;;;;;;;14.65;3.60;;;16.10;99.90;;;;;;5005420;28;20061;-87
2024/03/30 12:35:43;;;;;;;13.43;3.67;;;16.10;99.90;;;;;;5000700;28;20117;-88
2024/03/30 12:38:18;;;;;;;19.23;3.67;;;16.10;99.90;;;;;;4965749;28;20043;-88
2024/03/30 12:40:46;;;;;;;14.38;3.58;;;16.00;99.90;;;;;;4982979;28;20057;-87
2024/03/30 12:43:14;;;;;;;14.35;3.22;;;16.00;99.90;;;;;;5000896;28;20037;-87
2024/03/30 12:45:47;;;;;;;11.70;3.22;;;16.00;99.90;;;;;;5002468;28;20429;-89
2024/03/30 12:48:16;;;;;;;12.82;2.88;;;16.00;99.90;;;;;;4987163;28;20065;-90
2024/03/30 12:50:42;;;;;;;11.52;2.60;;;16.00;99.90;;;;;;4983217;28;20067;-87
2024/03/30 12:53:11;;;;;;;6.93;2.67;;;16.00;99.90;;;;;;5000233;28;20029;-87
2024/03/30 12:55:37;;;;;;;15.52;2.78;;;16.00;99.90;;;;;;5000876;28;20054;-89
2024/03/30 12:58:03;;;;;;;8.23;2.83;;;15.90;99.90;;;;;;4981839;28;20030;-90